Airfield :
LOGIN :

Register | Disclaimer

   EN    FR    IT 

 










Legend :    VFR   Marginal VFR   IFR   Intensive IFR   Very Intensive IFR
Visi :
Ceiling :
>= 8 km
>= 3000ft
5 to 8 km
1000 to 3000 ft
1500m to 5 km
500 to 1000 ft
800 to 1500m
200 to 500 ft
< 800m
< 200 ft
Symbols :   Thunderstorms  Fog  Heavy snow  Heavy precipitations  Wind > 20 kt
SIGMETs :     Misc.  Thunderstorms  Icing  Turbulence  Mountain Waves  Volcanic Ashes







- Airport Elevation : 778 ft
- IATA code : BRQ


LKTB - Brno-Turany

CURRENT METAR :
  • 190230Z 27010KT CAVOK 04/00 Q1012 NOSIG

EXPIRED METARs :
  • 190200Z 28009KT CAVOK 04/00 Q1012 NOSIG
  • 190130Z 28012KT 9999 FEW027 BKN049 04/M00 Q1013 NOSIG
  • 190100Z 27010KT 9999 -RA BKN039 OVC049 04/M00 Q1013 NOSIG
  • 190030Z 26008KT 9999 -RA BKN039 OVC049 04/M00 Q1013 NOSIG
  • 190009Z 26010KT 9999 -RA SCT031 OVC040 04/M00 Q1013 RMK REG QNH 1008
  • 190000Z 26009KT 9999 SCT031 OVC040 04/M00 Q1013 NOSIG

TAF TAF LKTB
Valid from the 19 at 00:00 until the 20 at 06:00 UTC


182300Z 1900/2006 23010KT 9999 BKN035
TEMPO 1900/1908 7000 -RASN BKN025
TEMPO 1909/2006 29014G28KT 4000 SHRASN FEW015TCU BKN017
No reported NOTAMs for that airfield.



MET'MAP, your aeronautical weather chart ! - Copyright ORBIFLY December 2007 - Disclaimer

ORBIFLY MET'MAP TEAM :

Programming & Development : Alexandra Zaïnal
Concept & Development : Baudouin d'Aumeries
Co-Development & Prog : Marc-Olivier Méhu
Technical & hardware support : Manuel Goepfert

Contact : metmap@orbifly.com




SOURCES & CREDITS :

   NOAA